Yosemite National Park, California
Current Conditions -  °F | °C
As of 2:35 AM on Saturday 25 Oct 2014 (Local Time) from KMMH Reporting Station
Clear Clear  
Wind Chill: 41°   Ceiling: Unl
Heat Index: 41°   Visibility: 10mi
Dew Point: 14°   Wind: 3mph
Humidity: 33%   Direction: 20°NNE
Pressure: 30.15"   Gusts: NA
Location:  37.6076°N, 119.603°W
Report Text: KMMH 250935Z AUTO 02003KT 10SM CLR 05/M10 A3015 RMK AO1
Loading
Personal Weather Stations






























Interactive Weather Map
Tropical Storm Tracking
New forecast layout! Learn more

10-Day Weather Forecast

Advertisements
Track Severe Weather on mobile